Huvudsida
METAR-TAF:

METAR-TAF

Flygplatser :

L.F. Wade International Airport

Bermuda, Bermuda

latitud: 32-22N, longitud: 064-41W, höjd: 6 m

Aktuellt väderrapport

Denna rapport gjordes för 55 minuter sedan, klockan 15:55 UTC
Vind 9 kt från syd
Temperatur 28°C
Fuktighet 84%
Tryck 1022 hPa
Sikt 10 km eller mer
Få moln på en höjd av 1100 ft
Få moln på en höjd av 30000 ft

METAR: TXKF 071555Z 17009KT 9999 FEW011 FEW300 28/25 Q1022

Tid: 13:50 (16:50 UTC)

Väderprognos

Denna rapport gjordes för 5 timmar och 20 minuter sedan, klockan 11:30 UTC
Prognos gäller från 07 kl. 12 UTC till 08 kl. 12 UTC
Vind 8 kt från syd/sydväst
Sikt 10 km eller mer
Få moln på en höjd av 1200 ft
Spridda moln på en höjd av 25000 ft
Sannolikhet 30% :
Temporärt
från 08 kl. 00 UTC till 08 kl. 12 UTC
Sikt: 4000 m
Brutna moln på en höjd av 1200 ft
regnskurar

TAF: TXKF 071130Z 0712/0812 21008KT 9999 FEW012 SCT250 PROB30 TEMPO 0800/0812 4000 SHRA BKN012

Aktuella väderrapporter och prognoser från 4000 flygplatser (METAR- och TAF-rapporter).

De tillgängliga stationerna syns som gula och röda prickar på kartan.

För musen över prickarna för att se namnen på stationerna.

Klicka sedan för att få väderrapporter och prognoser.

För att ändra kartan: Klicka på de gröna knapparna med ett svart kors på för att zooma in; den gröna knappen med ett streck på för att zooma ut; eller på de gröna pilarna för angränsande kartor.


METAR-TAF: